createdAt,value
2023-02-19T00:05:22.520Z,9.80
2023-02-19T00:12:47.480Z,9.60
2023-02-19T00:20:12.623Z,9.60
2023-02-19T00:22:42.232Z,10.00
2023-02-19T00:40:03.677Z,10.00
2023-02-19T00:57:24.199Z,9.90
2023-02-19T01:14:44.420Z,10.40
2023-02-19T01:32:05.015Z,10.20
2023-02-19T01:34:34.096Z,10.00
2023-02-19T01:45:20.251Z,9.60
2023-02-19T01:47:54.824Z,10.00
2023-02-19T01:50:24.233Z,10.20
2023-02-19T01:55:21.480Z,10.00
2023-02-19T01:57:53.360Z,10.00
2023-02-19T02:00:24.275Z,12.20
2023-02-19T02:02:56.083Z,12.10
2023-02-19T02:05:46.733Z,9.90
2023-02-19T02:08:34.245Z,10.10
2023-02-19T02:11:02.926Z,9.80
2023-02-19T02:16:11.597Z,9.70
2023-02-19T02:21:57.643Z,10.10
2023-02-19T02:24:58.633Z,10.10
2023-02-19T02:27:39.933Z,10.20
2023-02-19T02:30:33.491Z,10.00
2023-02-19T02:33:07.020Z,9.40
2023-02-19T02:35:43.809Z,9.30
2023-02-19T02:38:14.225Z,10.10
2023-02-19T02:40:45.874Z,9.50
2023-02-19T02:45:44.436Z,9.60
2023-02-19T02:48:21.787Z,12.40
2023-02-19T02:50:54.921Z,10.00
2023-02-19T02:53:44.279Z,9.90
2023-02-19T02:56:13.442Z,9.90
2023-02-19T03:01:34.250Z,9.80
2023-02-19T03:04:05.652Z,9.30
2023-02-19T03:06:36.381Z,10.00
2023-02-19T03:09:11.528Z,9.60
2023-02-19T03:12:00.780Z,9.20
2023-02-19T03:15:02.357Z,10.00
2023-02-19T03:17:56.194Z,9.90
2023-02-19T03:20:25.792Z,9.70
2023-02-19T03:22:57.000Z,10.00
2023-02-19T03:25:45.959Z,10.10
2023-02-19T03:28:17.610Z,8.70
2023-02-19T03:30:50.263Z,9.30
2023-02-19T03:35:55.670Z,9.10
2023-02-19T03:38:28.373Z,9.20
2023-02-19T03:41:01.234Z,9.50
2023-02-19T03:43:39.960Z,9.40
2023-02-19T03:46:13.324Z,10.00
2023-02-19T03:48:49.470Z,9.60
2023-02-19T03:51:31.728Z,9.90
2023-02-19T03:54:09.976Z,9.30
2023-02-19T03:56:44.359Z,9.30
2023-02-19T03:59:18.849Z,9.70
2023-02-19T04:01:52.474Z,10.50
2023-02-19T04:04:26.623Z,9.30
2023-02-19T04:06:57.169Z,9.30
2023-02-19T04:09:28.819Z,10.00
2023-02-19T04:14:30.760Z,9.40
2023-02-19T04:17:02.217Z,9.60
2023-02-19T04:19:34.634Z,9.10
2023-02-19T04:22:04.303Z,9.40
2023-02-19T04:24:37.865Z,9.00
2023-02-19T04:27:07.736Z,9.00
2023-02-19T04:32:07.655Z,8.90
2023-02-19T04:34:37.143Z,9.10
2023-02-19T04:51:57.924Z,9.10
2023-02-19T04:59:22.826Z,9.40
2023-02-19T05:09:17.776Z,9.00
2023-02-19T05:19:12.600Z,9.60
2023-02-19T05:24:09.857Z,9.30
2023-02-19T05:26:39.280Z,9.40
2023-02-19T05:36:33.348Z,9.20
2023-02-19T05:44:01.479Z,9.10
2023-02-19T05:46:30.958Z,9.10
2023-02-19T05:53:58.456Z,9.20
2023-02-19T05:56:31.861Z,9.30
2023-02-19T05:59:04.565Z,9.30
2023-02-19T06:16:24.965Z,9.00
2023-02-19T06:26:20.668Z,8.90
2023-02-19T06:28:50.481Z,9.10
2023-02-19T06:31:19.475Z,9.00
2023-02-19T06:33:50.659Z,9.00
2023-02-19T06:36:20.844Z,8.60
2023-02-19T06:38:49.254Z,9.00
2023-02-19T06:41:17.792Z,9.00
2023-02-19T06:46:15.439Z,8.90
2023-02-19T06:48:45.699Z,9.30
2023-02-19T06:51:18.696Z,9.00
2023-02-19T06:56:27.155Z,9.20
2023-02-19T06:58:56.825Z,8.80
2023-02-19T07:06:25.641Z,9.10
2023-02-19T07:08:55.402Z,9.50
2023-02-19T07:13:56.637Z,8.90
2023-02-19T07:18:53.633Z,8.60
2023-02-19T07:23:51.536Z,9.00
2023-02-19T07:26:21.012Z,8.90
2023-02-19T07:28:51.051Z,9.00
2023-02-19T07:31:21.643Z,9.00
2023-02-19T07:33:50.267Z,8.40
2023-02-19T07:36:20.553Z,8.90
2023-02-19T07:41:18.958Z,9.10
2023-02-19T07:46:15.807Z,8.80
2023-02-19T07:48:45.446Z,8.80
2023-02-19T07:51:16.498Z,8.30
2023-02-19T07:53:44.718Z,9.10
2023-02-19T07:56:13.924Z,9.00
2023-02-19T07:58:43.879Z,9.00
2023-02-19T08:01:16.488Z,8.80
2023-02-19T08:03:44.733Z,8.80
2023-02-19T08:06:13.844Z,8.80
2023-02-19T08:08:42.152Z,8.60
2023-02-19T08:11:29.055Z,8.90
2023-02-19T08:13:58.495Z,8.60
2023-02-19T08:24:08.007Z,8.90
2023-02-19T08:29:06.181Z,9.00
2023-02-19T08:31:35.741Z,9.30
2023-02-19T08:34:04.429Z,8.80
2023-02-19T08:36:32.709Z,9.20
2023-02-19T08:39:00.895Z,9.10
2023-02-19T08:46:27.200Z,9.10
2023-02-19T08:48:55.619Z,9.70
2023-02-19T09:01:19.373Z,9.00
2023-02-19T09:03:48.989Z,9.20
2023-02-19T09:06:19.013Z,9.40
2023-02-19T09:08:47.543Z,9.20
2023-02-19T09:13:44.550Z,9.70
2023-02-19T09:16:13.068Z,10.30
2023-02-19T09:21:11.502Z,9.40
2023-02-19T09:23:40.435Z,10.00
2023-02-19T09:28:41.652Z,10.20
2023-02-19T09:31:12.893Z,9.70
2023-02-19T09:33:43.886Z,9.80
2023-02-19T09:36:14.196Z,9.30
2023-02-19T09:41:17.499Z,8.80
2023-02-19T09:46:26.594Z,8.00
2023-02-19T09:51:28.952Z,8.00
2023-02-19T09:58:58.361Z,7.70
2023-02-19T10:01:30.149Z,8.00
2023-02-19T10:06:29.989Z,7.90
2023-02-19T10:09:10.811Z,8.10
2023-02-19T10:14:10.210Z,7.80
2023-02-19T10:16:43.640Z,7.60
2023-02-19T10:21:43.776Z,8.40
2023-02-19T10:34:19.473Z,9.20
2023-02-19T10:36:51.652Z,7.50
2023-02-19T10:39:42.084Z,7.70
2023-02-19T10:42:17.104Z,7.90
2023-02-19T10:44:48.278Z,7.80
2023-02-19T10:47:22.616Z,7.80
2023-02-19T10:49:52.227Z,8.10
2023-02-19T10:52:26.681Z,7.80
2023-02-19T10:54:58.179Z,7.80
2023-02-19T10:57:33.062Z,8.20
2023-02-19T11:00:14.393Z,8.30
2023-02-19T11:05:19.954Z,8.00
2023-02-19T11:07:53.561Z,8.10
2023-02-19T11:10:27.309Z,8.50
2023-02-19T11:12:57.564Z,7.90
2023-02-19T11:15:29.882Z,8.50
2023-02-19T11:18:04.406Z,8.20
2023-02-19T11:20:33.200Z,8.50
2023-02-19T11:23:12.186Z,8.10
2023-02-19T11:25:46.732Z,8.00
2023-02-19T11:28:31.096Z,8.20
2023-02-19T11:31:16.993Z,8.30
2023-02-19T11:33:48.924Z,6.00
2023-02-19T11:36:30.038Z,8.10
2023-02-19T11:39:02.450Z,8.50
2023-02-19T11:41:54.755Z,8.70
2023-02-19T11:44:34.151Z,8.30
2023-02-19T11:47:18.347Z,8.20
2023-02-19T11:49:55.873Z,8.50
2023-02-19T11:52:35.864Z,8.20
2023-02-19T11:55:14.761Z,8.40
2023-02-19T12:00:25.059Z,7.70
2023-02-19T12:03:12.753Z,8.50
2023-02-19T12:05:51.000Z,8.10
2023-02-19T12:08:37.592Z,8.10
2023-02-19T12:11:21.261Z,8.40
2023-02-19T12:14:04.979Z,7.80
2023-02-19T12:16:39.603Z,8.20
2023-02-19T12:19:29.626Z,8.00
2023-02-19T12:22:15.481Z,8.10
2023-02-19T12:25:08.406Z,7.80
2023-02-19T12:27:49.579Z,8.60
2023-02-19T12:30:33.653Z,8.10
2023-02-19T12:33:36.652Z,8.80
2023-02-19T12:36:15.787Z,8.20
2023-02-19T12:38:45.846Z,8.80
2023-02-19T12:41:25.655Z,8.20
2023-02-19T12:44:00.002Z,8.30
2023-02-19T12:46:33.505Z,8.80
2023-02-19T12:49:08.433Z,8.70
2023-02-19T12:51:42.241Z,8.00
2023-02-19T12:54:15.769Z,8.20
2023-02-19T12:56:48.166Z,8.60
2023-02-19T12:59:23.715Z,8.70
2023-02-19T13:01:58.009Z,8.00
2023-02-19T13:04:35.354Z,8.80
2023-02-19T13:07:08.221Z,8.50
2023-02-19T13:09:40.305Z,8.70
2023-02-19T13:12:13.439Z,9.00
2023-02-19T13:14:46.158Z,8.40
2023-02-19T13:17:24.961Z,8.60
2023-02-19T13:19:58.049Z,8.70
2023-02-19T13:22:50.420Z,8.80
2023-02-19T13:25:20.337Z,8.80
2023-02-19T13:28:27.010Z,8.20
2023-02-19T13:31:13.239Z,6.90
2023-02-19T13:33:54.473Z,8.70
2023-02-19T13:36:26.495Z,8.20
2023-02-19T13:38:57.250Z,8.70
2023-02-19T13:41:30.665Z,8.60
2023-02-19T13:44:03.000Z,8.80
2023-02-19T13:46:41.874Z,8.90
2023-02-19T13:49:43.408Z,9.30
2023-02-19T13:52:40.512Z,8.50
2023-02-19T13:55:49.709Z,9.20
2023-02-19T13:58:53.089Z,8.60
2023-02-19T14:01:41.853Z,8.70
2023-02-19T14:07:23.253Z,8.80
2023-02-19T14:14:49.692Z,8.70
2023-02-19T14:17:29.290Z,8.30
2023-02-19T14:20:00.798Z,8.80
2023-02-19T14:25:30.239Z,8.70
2023-02-19T14:28:03.384Z,8.70
2023-02-19T14:30:33.342Z,8.70
2023-02-19T14:33:11.741Z,8.80
2023-02-19T14:35:44.811Z,8.40
2023-02-19T14:38:19.176Z,8.30
2023-02-19T14:40:49.207Z,8.90
2023-02-19T14:43:20.015Z,8.60
2023-02-19T14:45:52.587Z,8.70
2023-02-19T14:50:58.208Z,8.20
2023-02-19T14:58:28.891Z,8.20
2023-02-19T15:03:34.263Z,8.40
2023-02-19T15:06:06.999Z,7.90
2023-02-19T15:08:40.301Z,8.10
2023-02-19T15:11:12.599Z,8.20
2023-02-19T15:13:45.612Z,8.50
2023-02-19T15:16:19.240Z,7.80
2023-02-19T15:21:25.642Z,8.20
2023-02-19T15:23:56.452Z,8.70
2023-02-19T15:26:32.887Z,7.90
2023-02-19T15:29:02.906Z,8.20
2023-02-19T15:36:32.102Z,8.10
2023-02-19T15:39:03.226Z,7.90
2023-02-19T15:41:35.753Z,7.60
2023-02-19T15:44:17.049Z,8.40
2023-02-19T15:46:46.823Z,8.10
2023-02-19T15:49:19.770Z,7.60
2023-02-19T15:51:54.326Z,7.80
2023-02-19T15:54:28.541Z,8.10
2023-02-19T15:57:00.572Z,7.80
2023-02-19T15:59:33.515Z,7.80
2023-02-19T16:07:03.856Z,8.20
2023-02-19T16:09:38.955Z,7.80
2023-02-19T16:12:22.032Z,8.40
2023-02-19T16:17:23.065Z,7.60
2023-02-19T16:19:56.802Z,7.50
2023-02-19T16:22:28.846Z,8.60
2023-02-19T16:24:59.533Z,7.70
2023-02-19T16:27:32.982Z,7.10
2023-02-19T16:30:08.291Z,8.10
2023-02-19T16:37:37.103Z,7.70
2023-02-19T16:40:44.780Z,7.70
2023-02-19T16:43:29.258Z,7.60
2023-02-19T16:50:54.615Z,7.30
2023-02-19T16:53:25.831Z,7.80
2023-02-19T17:03:22.371Z,7.80
2023-02-19T17:06:02.639Z,7.40
2023-02-19T17:08:35.411Z,7.60
2023-02-19T17:21:06.392Z,8.30
2023-02-19T17:23:35.904Z,8.00
2023-02-19T17:40:58.111Z,7.90
2023-02-19T17:58:18.857Z,7.80
2023-02-19T18:15:40.034Z,7.60
2023-02-19T18:50:23.931Z,7.90
2023-02-19T19:00:20.442Z,7.20
2023-02-19T19:05:23.217Z,7.80
2023-02-19T19:50:12.130Z,7.70
2023-02-19T20:17:32.044Z,7.20
2023-02-19T20:52:17.737Z,7.30
2023-02-19T21:27:03.682Z,6.60
2023-02-19T22:29:14.461Z,6.20
2023-02-19T23:33:50.156Z,6.60
